Accueil
METAR-TAF:

METAR-TAF

Aéroports :

Tatalina, Alaska, États-Unis

latitude: 62-54N, longitude: 155-59W, altitude: 294 m

Observation

Le bulletin a été fait il y a 23 minutes, à 22:55 UTC
Vent 3 kt de direction variable
Température -23°C
Humidité 84%
Pression 1008 hPa
Visibilité: 16.1 km
Quelques nuages à une hauteur de 900 ft
Nuages fragmentés à une hauteur de 7000 ft
faibles averses de neige

METAR: PATL 222255Z AUTO VRB03KT 10SM -SHSN FEW009 BKN070 M23/M25 A2977 RMK AO2 SNB2055E2229SHSNB2235 SLP130 P0000 T12301252

Heure: 14:18 (23:18 UTC)


TAF: absent

Observations et prévisions météorologiques de plus de 4000 aéroports (messages METAR et TAF).

Les stations disponibles sont représentées par des disques jaunes et rouges sur la carte.

Passer la souris dessus pour voir le nom de la station.

Cliquer dessus pour voir les observations et prévisions météorologiques.

Pour changer de carte: cliquez sur les boutons verts avec une croix noire pour zoomer, sur le bouton vert avec un tiret pour effectuer un zoom arrière, ou sur les flèches vertes pour les cartes adjacentes.


METAR-TAF: